Time;durP1;ratioP1;P1;durP2;ratioP2;P2;SDS_P1;SDS_P2;PMS_P1;PMS_P2;Temp;Humidity;BMP_temperature;BMP_pressure;BME280_temperature;BME280_humidity;BME280_pressure;Samples;Min_cycle;Max_cycle;Signal;HPM_P1;HPM_P2
2022/11/01 00:01:30;;;;;;;17.43;10.80;;;13.50;99.90;;;;;;4147516;28;20219;-81
2022/11/01 00:03:32;;;;;;;18.20;11.43;;;13.40;99.90;;;;;;4144076;28;20199;-79
2022/11/01 00:05:37;;;;;;;17.00;10.53;;;13.40;99.90;;;;;;4145137;28;20243;-78
2022/11/01 00:07:39;;;;;;;16.70;10.17;;;13.30;99.90;;;;;;4155261;28;20212;-80
2022/11/01 00:09:41;;;;;;;18.00;10.80;;;13.30;99.90;;;;;;4157475;28;20236;-80
2022/11/01 00:11:44;;;;;;;16.63;10.97;;;13.30;99.90;;;;;;4156583;28;20195;-81
2022/11/01 00:13:47;;;;;;;20.57;11.90;;;13.30;99.90;;;;;;4164182;28;20665;-80
2022/11/01 00:15:50;;;;;;;19.27;10.83;;;13.30;99.90;;;;;;4154430;28;20741;-80
2022/11/01 00:17:53;;;;;;;18.97;11.80;;;13.20;99.90;;;;;;4146035;28;20972;-79
2022/11/01 00:19:55;;;;;;;17.00;11.07;;;13.20;99.90;;;;;;4150137;28;20280;-78
2022/11/01 00:21:57;;;;;;;18.30;10.97;;;13.20;99.90;;;;;;4154673;28;20274;-79
2022/11/01 00:24:00;;;;;;;17.83;10.83;;;13.10;99.90;;;;;;4153510;28;20218;-80
2022/11/01 00:26:02;;;;;;;19.60;11.40;;;13.20;99.90;;;;;;4155819;28;20246;-79
2022/11/01 00:28:05;;;;;;;18.53;11.00;;;13.10;99.90;;;;;;4172040;28;20211;-78
2022/11/01 00:30:09;;;;;;;17.93;11.27;;;13.10;99.90;;;;;;4170764;28;20214;-79
2022/11/01 00:32:14;;;;;;;19.37;11.53;;;13.00;99.90;;;;;;4157211;28;20444;-79
2022/11/01 00:34:17;;;;;;;23.00;12.00;;;13.00;99.90;;;;;;4155952;28;20270;-80
2022/11/01 00:36:19;;;;;;;18.30;10.70;;;13.00;99.90;;;;;;4153568;28;20212;-79
2022/11/01 00:38:21;;;;;;;20.37;11.70;;;13.00;99.90;;;;;;4158434;28;20211;-79
2022/11/01 00:40:24;;;;;;;21.17;11.97;;;13.00;99.90;;;;;;4169049;28;20207;-79
2022/11/01 00:42:27;;;;;;;19.90;12.47;;;12.90;99.90;;;;;;4157097;28;20203;-80
2022/11/01 00:44:30;;;;;;;22.63;11.90;;;12.90;99.90;;;;;;4171599;28;20242;-79
2022/11/01 00:46:34;;;;;;;19.23;12.00;;;12.90;99.90;;;;;;4152009;28;20613;-79
2022/11/01 00:48:38;;;;;;;19.30;11.57;;;12.80;99.90;;;;;;4144962;28;20304;-80
2022/11/01 00:50:40;;;;;;;17.67;11.27;;;12.90;99.90;;;;;;4167349;28;20218;-81
2022/11/01 00:52:43;;;;;;;19.27;11.60;;;12.80;99.90;;;;;;4151942;28;20217;-80
2022/11/01 00:54:45;;;;;;;21.83;12.60;;;12.80;99.90;;;;;;4151504;28;20657;-80
2022/11/01 00:56:47;;;;;;;20.00;11.83;;;12.80;99.90;;;;;;4151590;28;20209;-81
2022/11/01 00:58:50;;;;;;;21.33;12.07;;;12.80;99.90;;;;;;4162629;28;20676;-80
2022/11/01 01:00:54;;;;;;;20.70;12.10;;;12.80;99.90;;;;;;4153410;28;20247;-80
2022/11/01 01:02:58;;;;;;;19.37;11.10;;;12.70;99.90;;;;;;4140637;28;20289;-80
2022/11/01 01:05:02;;;;;;;20.00;11.73;;;12.70;99.90;;;;;;4171687;28;20281;-81
2022/11/01 01:07:12;;;;;;;21.50;11.80;;;12.70;99.90;;;;;;4171955;28;20278;-81
2022/11/01 01:09:14;;;;;;;19.57;10.90;;;12.70;99.90;;;;;;4148172;28;20623;-80
2022/11/01 01:11:20;;;;;;;18.43;11.07;;;13.30;99.90;;;;;;4140764;28;20289;-80
2022/11/01 01:13:22;;;;;;;20.63;12.13;;;12.60;99.90;;;;;;4142876;28;20211;-80
2022/11/01 01:15:27;;;;;;;21.97;12.50;;;12.60;99.90;;;;;;4145020;28;20287;-80
2022/11/01 01:17:34;;;;;;;22.50;12.87;;;12.60;99.90;;;;;;4150511;28;20282;-80
2022/11/01 01:19:37;;;;;;;19.23;12.27;;;12.50;99.90;;;;;;4156421;28;20297;-81
2022/11/01 01:21:40;;;;;;;20.57;12.03;;;12.50;99.90;;;;;;4156443;28;20206;-82
2022/11/01 01:23:43;;;;;;;18.70;11.10;;;12.50;99.90;;;;;;4153829;28;20219;-80
2022/11/01 01:25:45;;;;;;;19.23;12.23;;;12.50;99.90;;;;;;4146235;28;20230;-79
2022/11/01 01:27:48;;;;;;;22.57;12.57;;;12.50;99.90;;;;;;4162124;28;20242;-79
2022/11/01 01:29:51;;;;;;;19.47;11.67;;;12.50;99.90;;;;;;4151996;28;20299;-79
2022/11/01 01:32:02;;;;;;;21.07;12.23;;;12.40;99.90;;;;;;4156010;28;20217;-80
2022/11/01 01:34:08;;;;;;;22.57;13.20;;;12.50;99.90;;;;;;4153232;28;20214;-80
2022/11/01 01:36:13;;;;;;;21.93;13.13;;;12.40;99.90;;;;;;4156947;28;20682;-82
2022/11/01 01:38:17;;;;;;;26.97;16.10;;;12.70;99.90;;;;;;4158936;28;20214;-80
2022/11/01 01:40:32;;;;;;;25.53;12.97;;;12.40;99.90;;;;;;4159977;28;20274;-81
2022/11/01 01:42:39;;;;;;;30.90;15.97;;;12.40;99.90;;;;;;4154763;28;20211;-80
2022/11/01 01:45:00;;;;;;;24.63;14.10;;;12.30;99.90;;;;;;4156865;28;20266;-79
2022/11/01 01:47:02;;;;;;;27.37;14.00;;;12.40;99.90;;;;;;4152641;28;20239;-80
2022/11/01 01:49:05;;;;;;;24.50;14.43;;;12.40;99.90;;;;;;4158242;28;20215;-81
2022/11/01 01:51:11;;;;;;;21.67;13.03;;;12.30;99.90;;;;;;4152580;28;20245;-81
2022/11/01 01:53:19;;;;;;;22.77;13.57;;;12.30;99.90;;;;;;4167008;28;20238;-81
2022/11/01 01:55:24;;;;;;;23.17;13.47;;;12.30;99.90;;;;;;4148825;28;20286;-81
2022/11/01 01:57:26;;;;;;;20.53;12.83;;;12.30;99.90;;;;;;4154686;28;20247;-80
2022/11/01 01:59:28;;;;;;;22.43;13.30;;;12.30;99.90;;;;;;4159417;28;20241;-81
2022/11/01 02:01:32;;;;;;;25.50;15.20;;;12.30;99.90;;;;;;4155266;28;20215;-78
2022/11/01 02:03:36;;;;;;;21.43;13.53;;;12.20;99.90;;;;;;4174382;28;20214;-79
2022/11/01 02:05:44;;;;;;;22.53;13.33;;;12.20;99.90;;;;;;4165645;28;20225;-80
2022/11/01 02:07:46;;;;;;;23.03;14.03;;;12.20;99.90;;;;;;4160628;28;20234;-80
2022/11/01 02:09:50;;;;;;;22.73;13.00;;;12.50;99.90;;;;;;4155150;28;20241;-78
2022/11/01 02:11:53;;;;;;;23.77;13.43;;;12.20;99.90;;;;;;4140178;28;20211;-80
2022/11/01 02:13:58;;;;;;;21.13;13.50;;;12.20;99.90;;;;;;4144225;28;20203;-78
2022/11/01 02:16:28;;;;;;;22.20;13.40;;;12.10;99.90;;;;;;4146712;28;20224;-82
2022/11/01 02:18:41;;;;;;;23.40;13.70;;;12.10;99.90;;;;;;4143296;28;20218;-79
2022/11/01 02:21:31;;;;;;;22.30;12.83;;;12.10;99.90;;;;;;4144907;28;20268;-79
2022/11/01 02:24:13;;;;;;;21.83;12.27;;;12.10;99.90;;;;;;4162330;28;20263;-78
2022/11/01 02:26:36;;;;;;;20.73;12.50;;;12.10;99.90;;;;;;4135358;28;20248;-79
2022/11/01 02:28:53;;;;;;;24.33;13.57;;;12.10;99.90;;;;;;4138253;28;20215;-78
2022/11/01 02:31:07;;;;;;;22.93;13.33;;;12.10;99.90;;;;;;4146538;28;20206;-80
2022/11/01 02:33:20;;;;;;;26.27;15.50;;;12.00;99.90;;;;;;4141891;28;20207;-80
2022/11/01 02:35:31;;;;;;;34.20;17.47;;;12.00;99.90;;;;;;4137328;28;20260;-80
2022/11/01 02:37:39;;;;;;;30.33;16.57;;;12.00;99.90;;;;;;4146219;28;20234;-80
2022/11/01 02:39:49;;;;;;;29.13;16.77;;;12.00;99.90;;;;;;4147727;28;20233;-81
2022/11/01 02:41:57;;;;;;;27.57;15.13;;;12.00;99.90;;;;;;4144074;28;20206;-79
2022/11/01 02:44:03;;;;;;;24.10;14.40;;;12.00;99.90;;;;;;4141680;28;20218;-79
2022/11/01 02:48:26;;;;;;;34.37;18.03;;;12.00;99.90;;;;;;4146025;28;20213;-82
2022/11/01 02:50:32;;;;;;;30.37;16.33;;;12.00;99.90;;;;;;4146195;28;20254;-80
2022/11/01 02:52:40;;;;;;;31.27;16.73;;;11.90;99.90;;;;;;4144955;28;20229;-78
2022/11/01 02:54:46;;;;;;;26.70;14.43;;;11.90;99.90;;;;;;4160364;28;20226;-79
2022/11/01 02:56:53;;;;;;;22.13;13.23;;;11.90;99.90;;;;;;4144052;28;20278;-78
2022/11/01 02:58:56;;;;;;;19.53;12.10;;;11.90;99.90;;;;;;4146788;28;20198;-80
2022/11/01 03:00:58;;;;;;;21.70;13.20;;;12.00;99.90;;;;;;4136113;28;20607;-79
2022/11/01 03:03:10;;;;;;;25.10;13.63;;;11.90;99.90;;;;;;4144540;28;20225;-78
2022/11/01 03:05:21;;;;;;;20.30;11.80;;;11.90;99.90;;;;;;4143320;28;20269;-80
2022/11/01 03:07:23;;;;;;;21.73;12.87;;;11.90;99.90;;;;;;4141405;28;20722;-81
2022/11/01 03:09:27;;;;;;;19.23;11.70;;;11.90;99.90;;;;;;4159390;28;20210;-78
2022/11/01 03:11:36;;;;;;;20.30;11.57;;;11.90;99.90;;;;;;4140341;28;20250;-80
2022/11/01 03:13:51;;;;;;;17.43;10.30;;;11.90;99.90;;;;;;4143021;28;20215;-79
2022/11/01 03:16:02;;;;;;;23.50;13.07;;;11.90;99.90;;;;;;4144530;28;20330;-77
2022/11/01 03:18:11;;;;;;;22.57;12.23;;;11.90;99.90;;;;;;4147436;28;20210;-79
2022/11/01 03:20:21;;;;;;;18.27;11.60;;;11.90;99.90;;;;;;4145623;28;20665;-80
2022/11/01 03:22:31;;;;;;;20.27;11.37;;;11.90;99.90;;;;;;4153371;28;20404;-80
2022/11/01 03:24:40;;;;;;;18.47;10.40;;;11.90;99.90;;;;;;4156664;28;20241;-80
2022/11/01 03:26:49;;;;;;;16.83;10.23;;;11.90;99.90;;;;;;4156206;28;20236;-80
2022/11/01 03:28:54;;;;;;;18.93;11.07;;;11.90;99.90;;;;;;4156060;28;20232;-80
2022/11/01 03:31:07;;;;;;;19.43;11.50;;;11.90;99.90;;;;;;4155274;28;20210;-80
2022/11/01 03:33:20;;;;;;;24.93;13.33;;;11.80;99.90;;;;;;4150888;28;20207;-80
2022/11/01 03:35:32;;;;;;;27.90;14.90;;;11.80;99.90;;;;;;4171328;28;20237;-79
2022/11/01 03:37:36;;;;;;;23.27;12.57;;;11.80;99.90;;;;;;4153928;28;20303;-80
2022/11/01 03:39:43;;;;;;;20.20;12.33;;;11.80;99.90;;;;;;4161165;28;20850;-80
2022/11/01 03:41:49;;;;;;;23.30;13.77;;;11.80;99.90;;;;;;4153866;28;20274;-80
2022/11/01 03:43:53;;;;;;;22.73;13.33;;;11.80;99.90;;;;;;4153047;28;20714;-80
2022/11/01 03:45:56;;;;;;;25.47;14.23;;;11.90;99.90;;;;;;4153945;28;20253;-80
2022/11/01 03:48:00;;;;;;;27.47;15.60;;;11.80;99.90;;;;;;4152710;28;20203;-80
2022/11/01 03:50:15;;;;;;;25.47;14.33;;;11.80;99.90;;;;;;4152442;28;20343;-80
2022/11/01 03:52:18;;;;;;;25.00;14.93;;;11.80;99.90;;;;;;4151627;28;20574;-80
2022/11/01 03:54:26;;;;;;;26.43;15.03;;;11.50;99.90;;;;;;4145482;28;20680;-80
2022/11/01 03:56:28;;;;;;;26.07;14.47;;;11.80;99.90;;;;;;4147854;28;20202;-80
2022/11/01 03:58:40;;;;;;;26.77;14.77;;;11.90;99.90;;;;;;4157820;28;20695;-80
2022/11/01 04:00:44;;;;;;;27.13;14.83;;;11.80;99.90;;;;;;4152384;28;20582;-80
2022/11/01 04:02:46;;;;;;;24.70;14.33;;;11.80;99.90;;;;;;4151516;28;20286;-80
2022/11/01 04:04:48;;;;;;;22.77;13.53;;;11.80;99.90;;;;;;4153752;28;20227;-80
2022/11/01 04:06:51;;;;;;;26.80;14.13;;;11.70;99.90;;;;;;4157915;28;20272;-80
2022/11/01 04:08:57;;;;;;;23.50;13.63;;;11.80;99.90;;;;;;4149930;28;20248;-81
2022/11/01 04:10:59;;;;;;;20.90;12.57;;;12.00;99.90;;;;;;4155192;28;20334;-80
2022/11/01 04:13:01;;;;;;;23.77;12.47;;;11.70;99.90;;;;;;4151109;28;20241;-80
2022/11/01 04:22:03;;;;;;;21.33;11.80;;;11.70;99.90;;;;;;4152605;28;20227;-80
2022/11/01 04:24:10;;;;;;;20.43;11.90;;;11.70;99.90;;;;;;4150150;28;20210;-80
2022/11/01 04:26:15;;;;;;;21.47;12.13;;;11.70;99.90;;;;;;4149425;28;20736;-80
2022/11/01 04:28:17;;;;;;;20.87;11.47;;;11.80;99.90;;;;;;4152833;28;20214;-80
2022/11/01 04:30:19;;;;;;;17.57;10.77;;;11.80;99.90;;;;;;4152376;28;20238;-80
2022/11/01 04:32:21;;;;;;;19.20;11.70;;;11.80;99.90;;;;;;4153099;28;20206;-80
2022/11/01 04:36:39;;;;;;;18.97;11.70;;;11.70;99.90;;;;;;4133381;28;20253;-78
2022/11/01 04:38:41;;;;;;;16.60;9.70;;;11.80;99.90;;;;;;4140038;28;20214;-78
2022/11/01 04:40:44;;;;;;;16.07;9.83;;;11.80;99.90;;;;;;4136761;28;20238;-79
2022/11/01 04:42:47;;;;;;;15.83;9.00;;;11.80;99.90;;;;;;4143427;28;20684;-80
2022/11/01 04:44:49;;;;;;;15.43;8.83;;;11.80;99.90;;;;;;4144630;28;20265;-82
2022/11/01 04:46:54;;;;;;;13.13;7.97;;;11.80;99.90;;;;;;4151540;28;20242;-80
2022/11/01 04:48:59;;;;;;;15.03;9.03;;;11.80;99.90;;;;;;4149946;28;20206;-80
2022/11/01 04:51:05;;;;;;;11.80;7.47;;;11.80;99.90;;;;;;4145666;28;20218;-80
2022/11/01 04:53:08;;;;;;;13.57;8.10;;;11.80;99.90;;;;;;4148397;28;20230;-78
2022/11/01 04:55:10;;;;;;;14.33;7.77;;;11.80;99.90;;;;;;4157402;28;20803;-79
2022/11/01 04:57:23;;;;;;;14.40;8.27;;;11.80;99.90;;;;;;4143796;28;20299;-78
2022/11/01 04:59:30;;;;;;;11.97;7.77;;;11.80;99.90;;;;;;4150006;28;20241;-79
2022/11/01 05:01:32;;;;;;;17.77;9.43;;;11.80;99.90;;;;;;4151178;28;20231;-82
2022/11/01 05:03:35;;;;;;;14.10;8.80;;;11.90;99.90;;;;;;4147419;28;20216;-80
2022/11/01 05:05:38;;;;;;;13.40;9.07;;;11.80;99.90;;;;;;4153776;28;20771;-80
2022/11/01 05:07:40;;;;;;;22.33;11.07;;;11.80;99.90;;;;;;4158793;28;20295;-80
2022/11/01 05:09:44;;;;;;;21.33;12.10;;;11.80;99.90;;;;;;4171827;28;20222;-80
2022/11/01 05:11:49;;;;;;;21.27;10.87;;;11.80;99.90;;;;;;4157806;28;20203;-80
2022/11/01 05:13:56;;;;;;;20.90;11.57;;;11.80;99.90;;;;;;4155387;28;20270;-81
2022/11/01 05:15:58;;;;;;;20.67;11.30;;;11.80;99.90;;;;;;4152379;28;20233;-80
2022/11/01 05:18:01;;;;;;;17.67;10.40;;;11.80;99.90;;;;;;4167404;28;20218;-79
2022/11/01 05:20:06;;;;;;;18.67;11.27;;;11.80;99.90;;;;;;4153093;28;20211;-80
2022/11/01 05:22:09;;;;;;;16.70;9.87;;;11.80;99.90;;;;;;4155322;28;20210;-81
2022/11/01 05:24:12;;;;;;;22.10;11.40;;;11.80;99.90;;;;;;4155514;28;21052;-80
2022/11/01 05:26:17;;;;;;;21.30;11.33;;;11.80;99.90;;;;;;4152454;28;20212;-80
2022/11/01 05:28:21;;;;;;;17.93;10.67;;;11.50;99.90;;;;;;4153152;28;20238;-81
2022/11/01 05:30:25;;;;;;;18.60;9.80;;;11.40;99.90;;;;;;4154656;28;20210;-79
2022/11/01 05:32:27;;;;;;;17.77;9.90;;;11.80;99.90;;;;;;4147759;28;20216;-80
2022/11/01 05:34:29;;;;;;;21.97;10.97;;;11.80;99.90;;;;;;4149214;28;20244;-79
2022/11/01 05:36:31;;;;;;;17.83;10.77;;;11.80;99.90;;;;;;4143838;28;20230;-79
2022/11/01 05:38:33;;;;;;;17.13;10.27;;;11.80;99.90;;;;;;4142835;28;20214;-79
2022/11/01 05:40:34;;;;;;;21.33;11.00;;;11.80;99.90;;;;;;4150913;28;20206;-79
2022/11/01 05:42:38;;;;;;;19.97;10.30;;;11.90;99.90;;;;;;4148231;28;20234;-78
2022/11/01 05:44:40;;;;;;;18.43;9.40;;;11.80;99.90;;;;;;4142704;28;20815;-79
2022/11/01 05:46:43;;;;;;;16.03;10.03;;;11.80;99.90;;;;;;4140170;28;21031;-78
2022/11/01 05:48:45;;;;;;;16.73;9.77;;;11.80;99.90;;;;;;4139710;28;20305;-78
2022/11/01 05:50:47;;;;;;;15.90;9.07;;;11.80;99.90;;;;;;4142162;28;20216;-79
2022/11/01 05:52:49;;;;;;;17.53;9.40;;;11.90;99.90;;;;;;4143136;28;20235;-79
2022/11/01 05:54:54;;;;;;;16.23;8.73;;;11.90;99.90;;;;;;4140361;28;20245;-79
2022/11/01 05:56:56;;;;;;;14.43;8.57;;;11.90;99.90;;;;;;4147355;28;20207;-81
2022/11/01 05:58:58;;;;;;;18.57;9.83;;;11.90;99.90;;;;;;4147070;28;20653;-80
2022/11/01 06:01:01;;;;;;;20.27;9.57;;;11.90;99.90;;;;;;4144894;28;20647;-77
2022/11/01 06:03:04;;;;;;;17.30;9.13;;;11.90;99.90;;;;;;4144147;28;20301;-78
2022/11/01 06:05:07;;;;;;;18.30;9.53;;;11.90;99.90;;;;;;4144539;28;20234;-78
2022/11/01 06:07:10;;;;;;;15.97;8.47;;;11.90;99.90;;;;;;4142516;28;20716;-82
2022/11/01 06:09:12;;;;;;;17.20;8.30;;;11.90;99.90;;;;;;4146431;28;20240;-81
2022/11/01 06:11:14;;;;;;;14.27;8.13;;;12.00;99.90;;;;;;4147479;28;20207;-81
2022/11/01 06:13:16;;;;;;;16.40;8.37;;;12.00;99.90;;;;;;4145465;28;20211;-81
2022/11/01 06:15:18;;;;;;;17.17;8.47;;;12.00;99.90;;;;;;4144239;28;20227;-81
2022/11/01 06:17:20;;;;;;;13.60;8.53;;;12.00;99.90;;;;;;4145329;28;20204;-81
2022/11/01 06:19:23;;;;;;;15.37;8.23;;;12.10;99.90;;;;;;4143450;28;20277;-81
2022/11/01 06:21:26;;;;;;;18.30;8.77;;;12.00;99.90;;;;;;4141630;28;20239;-81
2022/11/01 06:23:28;;;;;;;16.27;9.10;;;12.10;99.90;;;;;;4163644;28;20219;-81
2022/11/01 06:25:29;;;;;;;22.80;10.20;;;12.10;99.90;;;;;;4123821;28;1070879;-82
2022/11/01 06:27:33;;;;;;;20.20;9.23;;;12.10;99.90;;;;;;4163874;28;20284;-82
2022/11/01 06:29:35;;;;;;;15.97;8.10;;;12.10;99.90;;;;;;4159935;28;20215;-82
2022/11/01 06:31:38;;;;;;;15.83;8.73;;;12.20;99.90;;;;;;4164281;28;20206;-82
2022/11/01 06:33:40;;;;;;;16.53;8.27;;;12.30;99.90;;;;;;4148103;28;20203;-82
2022/11/01 06:35:43;;;;;;;13.20;7.43;;;12.20;99.90;;;;;;4151147;28;20617;-82
2022/11/01 06:37:46;;;;;;;17.83;7.90;;;12.20;99.90;;;;;;4147367;28;20200;-82
2022/11/01 06:39:48;;;;;;;16.67;8.00;;;12.20;99.90;;;;;;4151096;28;20215;-82
2022/11/01 06:41:50;;;;;;;15.53;7.50;;;12.30;99.90;;;;;;4153241;28;20242;-82
2022/11/01 06:43:52;;;;;;;15.40;7.87;;;12.30;99.90;;;;;;4149836;28;20214;-82
2022/11/01 06:45:54;;;;;;;15.93;8.67;;;12.30;99.90;;;;;;4152403;28;20234;-82
2022/11/01 06:47:56;;;;;;;17.20;7.47;;;12.40;99.90;;;;;;4154658;28;20251;-82
2022/11/01 06:49:58;;;;;;;12.87;7.93;;;12.40;99.90;;;;;;4150749;28;20227;-81
2022/11/01 06:52:02;;;;;;;15.37;8.30;;;12.50;99.90;;;;;;4154598;28;20302;-81
2022/11/01 06:54:04;;;;;;;18.70;8.40;;;12.50;99.90;;;;;;4153795;28;20215;-82
2022/11/01 06:56:06;;;;;;;17.63;8.37;;;12.50;99.90;;;;;;4167496;28;20226;-81
2022/11/01 06:58:09;;;;;;;16.10;8.00;;;12.60;99.90;;;;;;4148058;28;20215;-82
2022/11/01 07:00:12;;;;;;;19.53;8.87;;;12.60;99.90;;;;;;4150212;28;20215;-82
2022/11/01 07:02:14;;;;;;;15.90;7.63;;;12.70;99.90;;;;;;4147567;28;20208;-82
2022/11/01 07:04:16;;;;;;;17.60;7.80;;;12.70;99.90;;;;;;4150615;28;20226;-82
2022/11/01 07:06:18;;;;;;;16.67;8.17;;;12.70;99.90;;;;;;4145186;28;21274;-81
2022/11/01 07:08:21;;;;;;;11.10;7.13;;;12.80;99.90;;;;;;4153065;28;20235;-82
2022/11/01 07:10:23;;;;;;;13.17;7.50;;;12.90;99.90;;;;;;4148964;28;20204;-81
2022/11/01 07:12:25;;;;;;;17.27;7.50;;;12.90;99.90;;;;;;4166963;28;20285;-81
2022/11/01 07:14:27;;;;;;;20.13;7.60;;;13.00;99.90;;;;;;4143087;28;20208;-81
2022/11/01 07:16:29;;;;;;;14.30;7.07;;;13.10;99.90;;;;;;4146108;28;20220;-81
2022/11/01 07:18:32;;;;;;;13.87;6.97;;;13.10;99.90;;;;;;4157043;28;20203;-82
2022/11/01 07:20:40;;;;;;;13.43;6.90;;;13.20;99.90;;;;;;4158108;28;20227;-82
2022/11/01 07:22:42;;;;;;;12.97;6.83;;;13.30;99.90;;;;;;4155310;28;20275;-81
2022/11/01 07:24:45;;;;;;;12.27;6.90;;;13.10;99.90;;;;;;4158824;28;20246;-82
2022/11/01 07:26:47;;;;;;;15.83;7.20;;;13.40;99.90;;;;;;4154677;28;20247;-81
2022/11/01 07:28:49;;;;;;;15.63;7.17;;;13.40;99.90;;;;;;4148929;28;20240;-82
2022/11/01 07:30:55;;;;;;;12.90;7.27;;;13.50;99.90;;;;;;4152742;28;20207;-81
2022/11/01 07:32:58;;;;;;;16.83;6.83;;;13.80;99.90;;;;;;4148294;28;20200;-81
2022/11/01 07:35:01;;;;;;;16.77;6.67;;;13.60;99.90;;;;;;4146353;28;20335;-79
2022/11/01 07:37:04;;;;;;;10.67;6.20;;;13.60;99.90;;;;;;4149750;28;20207;-80
2022/11/01 07:39:09;;;;;;;10.83;5.87;;;13.70;99.90;;;;;;4149765;28;20254;-80
2022/11/01 07:41:12;;;;;;;9.70;5.83;;;13.70;99.90;;;;;;4155202;28;20211;-80
2022/11/01 07:43:17;;;;;;;10.90;5.80;;;13.80;99.90;;;;;;4158668;28;20233;-81
2022/11/01 07:45:19;;;;;;;12.03;6.03;;;13.70;99.90;;;;;;4158561;28;20239;-81
2022/11/01 07:47:21;;;;;;;11.20;6.00;;;13.90;99.90;;;;;;4158504;28;20232;-81
2022/11/01 07:49:26;;;;;;;15.67;6.60;;;13.90;99.90;;;;;;4158546;28;20195;-81
2022/11/01 07:51:27;;;;;;;10.23;5.57;;;13.90;99.90;;;;;;4157360;28;20238;-81
2022/11/01 07:53:29;;;;;;;13.13;6.43;;;14.00;99.90;;;;;;4156269;28;20667;-81
2022/11/01 07:55:32;;;;;;;11.47;6.10;;;14.10;99.90;;;;;;4161578;28;20702;-81
2022/11/01 07:57:39;;;;;;;10.77;6.13;;;14.10;99.90;;;;;;4151297;28;20213;-81
2022/11/01 07:59:41;;;;;;;12.57;6.27;;;14.10;99.90;;;;;;4156796;28;20243;-80
2022/11/01 08:01:43;;;;;;;12.50;5.83;;;14.20;99.90;;;;;;4155482;28;20225;-81
2022/11/01 08:03:45;;;;;;;14.53;6.37;;;14.20;99.90;;;;;;4153538;28;20223;-81
2022/11/01 08:05:47;;;;;;;13.07;6.90;;;14.30;99.90;;;;;;4160300;28;20915;-82
2022/11/01 08:07:49;;;;;;;12.40;6.80;;;14.30;99.90;;;;;;4148266;28;20219;-82
2022/11/01 08:09:51;;;;;;;12.37;6.30;;;14.40;99.90;;;;;;4145268;28;20680;-82
2022/11/01 08:11:55;;;;;;;11.10;6.70;;;14.40;99.90;;;;;;4146605;28;20217;-82
2022/11/01 08:13:59;;;;;;;14.03;6.80;;;14.50;99.90;;;;;;4148020;28;20703;-82
2022/11/01 08:16:02;;;;;;;12.73;6.50;;;14.50;99.90;;;;;;4145147;28;20228;-81
2022/11/01 08:18:04;;;;;;;12.03;6.57;;;14.60;99.90;;;;;;4150007;28;20238;-80
2022/11/01 08:20:08;;;;;;;15.53;7.10;;;14.60;99.90;;;;;;4147634;28;20750;-80
2022/11/01 08:22:10;;;;;;;15.93;7.07;;;14.70;99.90;;;;;;4150574;28;20813;-80
2022/11/01 08:24:15;;;;;;;11.93;6.20;;;14.70;99.90;;;;;;4142650;28;20686;-83
2022/11/01 08:26:17;;;;;;;17.70;6.90;;;14.80;99.90;;;;;;4143721;28;20255;-80
2022/11/01 08:28:21;;;;;;;10.50;6.03;;;14.80;99.90;;;;;;4161617;28;20231;-83
2022/11/01 08:30:24;;;;;;;12.20;6.47;;;14.80;99.90;;;;;;4148137;28;20217;-82
2022/11/01 08:32:26;;;;;;;16.37;7.07;;;14.90;99.90;;;;;;4152830;28;20230;-79
2022/11/01 08:34:29;;;;;;;11.90;6.33;;;14.90;99.90;;;;;;4159880;28;20221;-79
2022/11/01 08:36:31;;;;;;;12.90;5.80;;;14.90;99.90;;;;;;4149551;28;20303;-80
2022/11/01 08:38:33;;;;;;;11.33;6.40;;;14.90;99.90;;;;;;4155776;28;20197;-80
2022/11/01 08:40:35;;;;;;;11.23;6.10;;;15.00;99.90;;;;;;4155901;28;20330;-80
2022/11/01 08:42:38;;;;;;;10.70;5.57;;;15.00;99.90;;;;;;4157023;28;20220;-80
2022/11/01 08:44:40;;;;;;;10.73;5.90;;;15.10;99.90;;;;;;4171332;28;20841;-80
2022/11/01 08:46:47;;;;;;;11.37;5.40;;;15.10;99.90;;;;;;4153141;28;20216;-80
2022/11/01 08:48:55;;;;;;;12.30;5.77;;;15.10;99.90;;;;;;4169652;28;20236;-80
2022/11/01 08:50:56;;;;;;;12.30;5.27;;;15.20;99.90;;;;;;4149982;28;20308;-80
2022/11/01 08:52:58;;;;;;;9.73;5.40;;;15.20;99.90;;;;;;4161536;28;20206;-80
2022/11/01 08:55:00;;;;;;;13.30;5.77;;;15.30;99.90;;;;;;4152096;28;20234;-80
2022/11/01 08:57:03;;;;;;;15.47;6.70;;;15.30;99.90;;;;;;4155836;28;20534;-80
2022/11/01 08:59:04;;;;;;;12.90;6.27;;;15.40;99.90;;;;;;4157541;28;20655;-80
2022/11/01 09:01:06;;;;;;;14.23;6.53;;;15.40;99.90;;;;;;4151883;28;20218;-80
2022/11/01 09:03:10;;;;;;;15.13;6.27;;;15.40;99.90;;;;;;4151962;28;20210;-80
2022/11/01 09:05:12;;;;;;;11.50;6.43;;;15.50;99.90;;;;;;4153815;28;20597;-80
2022/11/01 09:07:14;;;;;;;10.77;6.20;;;15.50;99.90;;;;;;4152277;28;20255;-80
2022/11/01 09:09:16;;;;;;;14.03;6.17;;;15.60;99.90;;;;;;4165519;28;20261;-80
2022/11/01 09:11:18;;;;;;;11.17;6.20;;;15.60;99.90;;;;;;4168479;28;20276;-81
2022/11/01 09:13:19;;;;;;;13.37;6.60;;;15.60;99.90;;;;;;4151398;28;20761;-82
2022/11/01 09:15:21;;;;;;;16.13;6.33;;;15.70;99.90;;;;;;4146938;28;20255;-82
2022/11/01 09:17:23;;;;;;;11.73;6.07;;;15.70;99.90;;;;;;4151566;28;20231;-79
2022/11/01 09:19:26;;;;;;;14.43;6.50;;;15.80;99.90;;;;;;4153672;28;20244;-81
2022/11/01 09:21:28;;;;;;;10.13;6.00;;;15.80;99.90;;;;;;4147183;28;20269;-80
2022/11/01 09:23:30;;;;;;;11.90;6.03;;;15.90;99.90;;;;;;4146443;28;20206;-80
2022/11/01 09:25:32;;;;;;;9.33;5.27;;;15.90;99.90;;;;;;4149337;28;20242;-80
2022/11/01 09:27:35;;;;;;;9.83;5.57;;;16.00;99.90;;;;;;4148974;28;20298;-80
2022/11/01 09:29:37;;;;;;;11.23;5.90;;;16.00;99.90;;;;;;4146907;28;20244;-80
2022/11/01 09:31:39;;;;;;;9.53;5.43;;;16.10;99.90;;;;;;4148961;28;20220;-80
2022/11/01 09:33:41;;;;;;;9.57;5.90;;;16.10;99.90;;;;;;4149931;28;20672;-80
2022/11/01 09:35:50;;;;;;;11.13;6.13;;;16.20;99.90;;;;;;4152294;28;20291;-80
2022/11/01 09:37:57;;;;;;;7.87;5.33;;;16.30;99.90;;;;;;4149758;28;20238;-80
2022/11/01 09:39:59;;;;;;;10.63;5.20;;;16.30;99.90;;;;;;4155988;28;20207;-80
2022/11/01 09:42:04;;;;;;;12.83;5.97;;;16.30;99.90;;;;;;4155037;28;20231;-80
2022/11/01 09:44:08;;;;;;;11.53;6.50;;;16.40;99.90;;;;;;4154779;28;20214;-80
2022/11/01 09:46:14;;;;;;;13.27;6.17;;;16.40;99.90;;;;;;4162645;28;20270;-80
2022/11/01 09:48:17;;;;;;;12.07;6.00;;;16.40;99.90;;;;;;4158376;28;20251;-80
2022/11/01 09:50:22;;;;;;;12.10;5.97;;;16.50;99.90;;;;;;4152252;28;20216;-79
2022/11/01 09:52:25;;;;;;;12.47;6.13;;;16.50;99.90;;;;;;4154170;28;20304;-80
2022/11/01 09:54:28;;;;;;;11.73;5.47;;;16.50;99.90;;;;;;4152883;28;20242;-80
2022/11/01 09:56:40;;;;;;;14.07;5.97;;;16.60;99.90;;;;;;4156681;28;20243;-80
2022/11/01 09:58:53;;;;;;;11.60;6.00;;;16.60;99.90;;;;;;4170184;28;20218;-80
2022/11/01 10:01:01;;;;;;;12.33;6.50;;;16.60;99.90;;;;;;4169244;28;20212;-80
2022/11/01 10:03:18;;;;;;;13.03;6.07;;;16.60;99.90;;;;;;4157464;28;20209;-80
2022/11/01 10:05:38;;;;;;;9.57;5.27;;;16.60;99.90;;;;;;4175201;28;20337;-81
2022/11/01 10:07:51;;;;;;;13.10;5.83;;;16.60;99.90;;;;;;4152309;28;20204;-81
2022/11/01 10:10:00;;;;;;;10.43;5.37;;;16.60;99.90;;;;;;4156022;28;20230;-80
2022/11/01 10:12:31;;;;;;;10.47;6.50;;;16.70;99.90;;;;;;4147379;28;20208;-80
2022/11/01 10:14:45;;;;;;;13.13;5.87;;;16.60;99.90;;;;;;4151079;28;20236;-81
2022/11/01 10:16:54;;;;;;;12.80;5.83;;;16.60;99.90;;;;;;4172590;28;20215;-81
2022/11/01 10:19:05;;;;;;;10.30;5.77;;;16.60;99.90;;;;;;4151341;28;20210;-81
2022/11/01 10:21:14;;;;;;;13.47;5.83;;;16.70;99.90;;;;;;4153866;28;20238;-81
2022/11/01 10:23:23;;;;;;;14.50;5.93;;;16.60;99.90;;;;;;4149776;28;20224;-81
2022/11/01 10:25:29;;;;;;;13.00;6.63;;;16.70;99.90;;;;;;4152630;28;20243;-81
2022/11/01 10:27:42;;;;;;;12.83;6.30;;;16.70;99.90;;;;;;4155779;28;20203;-82
2022/11/01 10:29:49;;;;;;;11.07;5.67;;;16.70;99.90;;;;;;4155370;28;20227;-81
2022/11/01 10:31:53;;;;;;;12.33;5.47;;;16.80;99.90;;;;;;4151915;28;20263;-81
2022/11/01 10:34:00;;;;;;;11.40;6.13;;;16.80;99.90;;;;;;4155811;28;20226;-81
2022/11/01 10:36:12;;;;;;;10.70;5.73;;;16.80;99.90;;;;;;4152852;28;20764;-81
2022/11/01 10:38:27;;;;;;;12.37;5.77;;;16.80;99.90;;;;;;4149152;28;20231;-80
2022/11/01 10:40:38;;;;;;;12.90;5.60;;;16.90;99.90;;;;;;4163723;28;20219;-82
2022/11/01 10:42:42;;;;;;;8.23;4.57;;;16.90;99.90;;;;;;4141922;28;20216;-82
2022/11/01 10:44:53;;;;;;;10.63;4.60;;;17.10;99.90;;;;;;4146847;28;20226;-81
2022/11/01 10:46:56;;;;;;;10.30;4.40;;;17.10;99.90;;;;;;4146943;28;20196;-82
2022/11/01 10:49:03;;;;;;;8.73;4.20;;;17.10;99.90;;;;;;4153720;28;20240;-80
2022/11/01 10:51:08;;;;;;;7.13;4.57;;;17.20;99.90;;;;;;4149723;28;20208;-82